sensor_id;sensor_type;location;lat;lon;timestamp;pressure;altitude;pressure_sealevel;temperature;humidity
62025;BME280;47978;49.118;12.146;2023-05-19T00:03:10;98032.72;;;10.75;68.57
62025;BME280;47978;49.118;12.146;2023-05-19T00:07:16;98031.31;;;10.53;68.55
62025;BME280;47978;49.118;12.146;2023-05-19T00:11:19;98038.31;;;10.46;68.43
62025;BME280;47978;49.118;12.146;2023-05-19T00:15:21;98024.28;;;10.37;69.47
62025;BME280;47978;49.118;12.146;2023-05-19T00:19:23;98032.00;;;10.40;68.13
62025;BME280;47978;49.118;12.146;2023-05-19T00:23:29;98026.81;;;10.33;69.21
62025;BME280;47978;49.118;12.146;2023-05-19T00:27:31;98018.25;;;10.30;69.05
62025;BME280;47978;49.118;12.146;2023-05-19T00:31:32;98017.75;;;10.28;69.66
62025;BME280;47978;49.118;12.146;2023-05-19T00:35:34;98013.03;;;10.28;69.88
62025;BME280;47978;49.118;12.146;2023-05-19T00:39:37;98017.22;;;10.21;69.85
62025;BME280;47978;49.118;12.146;2023-05-19T00:43:38;98002.44;;;10.06;71.24
62025;BME280;47978;49.118;12.146;2023-05-19T00:47:40;98003.56;;;10.05;71.00
62025;BME280;47978;49.118;12.146;2023-05-19T00:51:42;97999.84;;;9.86;72.19
62025;BME280;47978;49.118;12.146;2023-05-19T00:55:45;98002.63;;;9.86;71.53
62025;BME280;47978;49.118;12.146;2023-05-19T00:59:48;98001.78;;;9.85;71.01
62025;BME280;47978;49.118;12.146;2023-05-19T01:03:49;98001.78;;;9.85;71.59
62025;BME280;47978;49.118;12.146;2023-05-19T01:07:51;97994.34;;;9.86;70.63
62025;BME280;47978;49.118;12.146;2023-05-19T01:11:54;98000.97;;;9.85;70.57
62025;BME280;47978;49.118;12.146;2023-05-19T01:16:02;97992.41;;;9.81;70.95
62025;BME280;47978;49.118;12.146;2023-05-19T01:20:11;97996.31;;;9.80;70.23
62025;BME280;47978;49.118;12.146;2023-05-19T01:24:33;97999.91;;;9.76;71.15
62025;BME280;47978;49.118;12.146;2023-05-19T01:29:02;97986.91;;;9.81;69.93
62025;BME280;47978;49.118;12.146;2023-05-19T01:33:11;97992.75;;;9.75;70.29
62025;BME280;47978;49.118;12.146;2023-05-19T01:37:14;97995.28;;;9.71;70.81
62025;BME280;47978;49.118;12.146;2023-05-19T01:41:17;97993.63;;;9.70;70.52
62025;BME280;47978;49.118;12.146;2023-05-19T01:45:19;97996.69;;;9.68;70.44
62025;BME280;47978;49.118;12.146;2023-05-19T01:49:22;97986.53;;;9.59;71.04
62025;BME280;47978;49.118;12.146;2023-05-19T01:53:24;97989.66;;;9.47;72.07
62025;BME280;47978;49.118;12.146;2023-05-19T01:57:31;97982.81;;;9.39;71.70
62025;BME280;47978;49.118;12.146;2023-05-19T02:01:42;97985.31;;;9.36;71.56
62025;BME280;47978;49.118;12.146;2023-05-19T02:05:54;97986.78;;;9.23;72.64
62025;BME280;47978;49.118;12.146;2023-05-19T02:10:04;97985.44;;;9.15;72.91
62025;BME280;47978;49.118;12.146;2023-05-19T02:14:19;97979.38;;;9.13;72.92
62025;BME280;47978;49.118;12.146;2023-05-19T02:18:22;97984.66;;;9.05;73.37
62025;BME280;47978;49.118;12.146;2023-05-19T02:22:25;97978.63;;;9.03;73.84
62025;BME280;47978;49.118;12.146;2023-05-19T02:26:26;97971.75;;;9.00;73.78
62025;BME280;47978;49.118;12.146;2023-05-19T02:30:28;97967.38;;;8.94;74.07
62025;BME280;47978;49.118;12.146;2023-05-19T02:34:30;97970.63;;;8.96;74.09
62025;BME280;47978;49.118;12.146;2023-05-19T02:38:33;97973.16;;;8.87;74.88
62025;BME280;47978;49.118;12.146;2023-05-19T02:42:34;97972.91;;;8.84;74.93
62025;BME280;47978;49.118;12.146;2023-05-19T02:46:36;97972.34;;;8.87;75.64
62025;BME280;47978;49.118;12.146;2023-05-19T02:50:38;97972.66;;;8.85;75.54
62025;BME280;47978;49.118;12.146;2023-05-19T02:54:41;97976.72;;;8.93;75.29
62025;BME280;47978;49.118;12.146;2023-05-19T02:58:42;97958.88;;;8.80;77.08
62025;BME280;47978;49.118;12.146;2023-05-19T03:02:44;97966.34;;;8.80;76.71
62025;BME280;47978;49.118;12.146;2023-05-19T03:06:46;97962.13;;;8.92;76.36
62025;BME280;47978;49.118;12.146;2023-05-19T03:10:49;97959.34;;;8.92;77.13
62025;BME280;47978;49.118;12.146;2023-05-19T03:14:50;97954.91;;;8.96;76.71
62025;BME280;47978;49.118;12.146;2023-05-19T03:18:52;97959.56;;;9.06;76.07
62025;BME280;47978;49.118;12.146;2023-05-19T03:22:53;97959.78;;;9.15;74.82
62025;BME280;47978;49.118;12.146;2023-05-19T03:26:56;97965.53;;;9.23;74.73
62025;BME280;47978;49.118;12.146;2023-05-19T03:30:58;97967.72;;;9.27;74.34
62025;BME280;47978;49.118;12.146;2023-05-19T03:34:59;97978.41;;;9.33;73.36
62025;BME280;47978;49.118;12.146;2023-05-19T03:39:01;97972.06;;;9.33;73.45
62025;BME280;47978;49.118;12.146;2023-05-19T03:43:04;97973.13;;;9.42;72.96
62025;BME280;47978;49.118;12.146;2023-05-19T03:47:05;97970.34;;;9.42;73.32
62025;BME280;47978;49.118;12.146;2023-05-19T03:51:13;97975.94;;;9.37;73.51
62025;BME280;47978;49.118;12.146;2023-05-19T03:55:14;97976.19;;;9.35;73.80
62025;BME280;47978;49.118;12.146;2023-05-19T03:59:17;97981.19;;;9.33;74.42
62025;BME280;47978;49.118;12.146;2023-05-19T04:03:19;97984.78;;;9.34;75.01
62025;BME280;47978;49.118;12.146;2023-05-19T04:07:21;97985.88;;;9.33;74.75
62025;BME280;47978;49.118;12.146;2023-05-19T04:11:22;97985.84;;;9.38;74.10
62025;BME280;47978;49.118;12.146;2023-05-19T04:15:25;97981.41;;;9.42;73.76
62025;BME280;47978;49.118;12.146;2023-05-19T04:19:27;97987.09;;;9.56;72.83
62025;BME280;47978;49.118;12.146;2023-05-19T04:23:28;97985.72;;;9.53;73.57
62025;BME280;47978;49.118;12.146;2023-05-19T04:27:30;97993.50;;;9.51;73.12
62025;BME280;47978;49.118;12.146;2023-05-19T04:31:33;97984.03;;;9.62;72.66
62025;BME280;47978;49.118;12.146;2023-05-19T04:35:34;97976.03;;;9.61;72.70
62025;BME280;47978;49.118;12.146;2023-05-19T04:39:36;97977.94;;;9.65;73.45
62025;BME280;47978;49.118;12.146;2023-05-19T04:43:38;97981.44;;;9.76;72.22
62025;BME280;47978;49.118;12.146;2023-05-19T04:47:40;97977.19;;;9.89;71.89
62025;BME280;47978;49.118;12.146;2023-05-19T04:51:42;97985.06;;;10.01;71.11
62025;BME280;47978;49.118;12.146;2023-05-19T04:55:44;97979.94;;;9.89;71.32
62025;BME280;47978;49.118;12.146;2023-05-19T04:59:45;97984.84;;;9.97;71.21
62025;BME280;47978;49.118;12.146;2023-05-19T05:03:48;97975.97;;;10.00;71.24
62025;BME280;47978;49.118;12.146;2023-05-19T05:07:50;97992.19;;;10.07;71.23
62025;BME280;47978;49.118;12.146;2023-05-19T05:11:52;97988.63;;;10.06;70.93
62025;BME280;47978;49.118;12.146;2023-05-19T05:15:54;97972.00;;;10.11;71.04
62025;BME280;47978;49.118;12.146;2023-05-19T05:19:58;97973.81;;;10.21;70.05
62025;BME280;47978;49.118;12.146;2023-05-19T05:24:00;97969.53;;;10.39;69.91
62025;BME280;47978;49.118;12.146;2023-05-19T05:28:01;97967.16;;;10.75;69.42
62025;BME280;47978;49.118;12.146;2023-05-19T05:32:03;97976.66;;;11.12;67.77
62025;BME280;47978;49.118;12.146;2023-05-19T05:36:07;97972.47;;;10.72;68.70
62025;BME280;47978;49.118;12.146;2023-05-19T05:40:10;97964.81;;;10.88;68.20
62025;BME280;47978;49.118;12.146;2023-05-19T05:44:11;97975.69;;;10.55;68.67
62025;BME280;47978;49.118;12.146;2023-05-19T05:48:13;97969.66;;;10.77;69.01
62025;BME280;47978;49.118;12.146;2023-05-19T05:52:17;97972.69;;;10.99;68.02
62025;BME280;47978;49.118;12.146;2023-05-19T05:56:21;97971.50;;;11.24;67.40
62025;BME280;47978;49.118;12.146;2023-05-19T06:00:23;97961.09;;;11.54;66.05
62025;BME280;47978;49.118;12.146;2023-05-19T06:04:24;97971.78;;;11.23;66.75
62025;BME280;47978;49.118;12.146;2023-05-19T06:08:27;97967.84;;;11.81;65.69
62025;BME280;47978;49.118;12.146;2023-05-19T06:12:29;97956.22;;;12.72;63.54
62025;BME280;47978;49.118;12.146;2023-05-19T06:16:31;97963.59;;;12.21;64.33
62025;BME280;47978;49.118;12.146;2023-05-19T06:20:32;97957.81;;;11.85;65.61
62025;BME280;47978;49.118;12.146;2023-05-19T06:24:36;97956.13;;;11.70;67.17
62025;BME280;47978;49.118;12.146;2023-05-19T06:28:39;97953.06;;;11.90;66.30
62025;BME280;47978;49.118;12.146;2023-05-19T06:32:41;97947.19;;;12.38;64.02
62025;BME280;47978;49.118;12.146;2023-05-19T06:36:44;97942.97;;;12.55;64.98
62025;BME280;47978;49.118;12.146;2023-05-19T06:40:47;97955.69;;;13.11;62.71
62025;BME280;47978;49.118;12.146;2023-05-19T06:44:49;97947.75;;;13.55;60.88
62025;BME280;47978;49.118;12.146;2023-05-19T06:48:51;97966.16;;;14.09;59.52
62025;BME280;47978;49.118;12.146;2023-05-19T06:52:52;97959.28;;;14.60;58.97
62025;BME280;47978;49.118;12.146;2023-05-19T06:56:55;97949.97;;;14.74;55.77
62025;BME280;47978;49.118;12.146;2023-05-19T07:00:57;97957.81;;;14.09;57.51
62025;BME280;47978;49.118;12.146;2023-05-19T07:04:59;97948.53;;;13.91;59.09
62025;BME280;47978;49.118;12.146;2023-05-19T07:09:00;97951.50;;;14.49;56.63
62025;BME280;47978;49.118;12.146;2023-05-19T07:13:03;97950.44;;;15.59;55.13
62025;BME280;47978;49.118;12.146;2023-05-19T07:17:05;97938.34;;;17.22;49.66
62025;BME280;47978;49.118;12.146;2023-05-19T07:21:06;97935.38;;;15.86;51.86
62025;BME280;47978;49.118;12.146;2023-05-19T07:25:09;97945.63;;;16.85;50.02
62025;BME280;47978;49.118;12.146;2023-05-19T07:29:11;97949.81;;;15.97;52.86
62025;BME280;47978;49.118;12.146;2023-05-19T07:33:13;97942.31;;;16.92;50.65
62025;BME280;47978;49.118;12.146;2023-05-19T07:37:15;97922.94;;;17.37;50.29
62025;BME280;47978;49.118;12.146;2023-05-19T07:41:16;97929.38;;;16.40;51.36
62025;BME280;47978;49.118;12.146;2023-05-19T07:45:19;97928.47;;;15.92;52.80
62025;BME280;47978;49.118;12.146;2023-05-19T07:49:21;97926.91;;;17.57;49.00
62025;BME280;47978;49.118;12.146;2023-05-19T07:53:22;97934.06;;;15.66;52.58
62025;BME280;47978;49.118;12.146;2023-05-19T07:57:24;97918.22;;;17.50;49.32
62025;BME280;47978;49.118;12.146;2023-05-19T08:01:28;97913.44;;;16.70;50.03
62025;BME280;47978;49.118;12.146;2023-05-19T08:05:30;97909.69;;;17.04;50.30
62025;BME280;47978;49.118;12.146;2023-05-19T08:09:31;97901.88;;;18.85;46.37
62025;BME280;47978;49.118;12.146;2023-05-19T08:13:33;97907.78;;;18.71;45.27
62025;BME280;47978;49.118;12.146;2023-05-19T08:17:36;97913.66;;;18.20;45.26
62025;BME280;47978;49.118;12.146;2023-05-19T08:21:37;97909.13;;;18.40;46.25
62025;BME280;47978;49.118;12.146;2023-05-19T08:25:39;97916.16;;;20.13;42.39
62025;BME280;47978;49.118;12.146;2023-05-19T08:29:40;97911.09;;;20.35;42.00
62025;BME280;47978;49.118;12.146;2023-05-19T08:33:43;97908.00;;;18.66;44.84
62025;BME280;47978;49.118;12.146;2023-05-19T08:37:45;97905.91;;;20.49;41.46
62025;BME280;47978;49.118;12.146;2023-05-19T08:41:47;97898.53;;;20.44;41.41
62025;BME280;47978;49.118;12.146;2023-05-19T08:45:48;97900.66;;;19.23;44.29
62025;BME280;47978;49.118;12.146;2023-05-19T08:49:52;97889.78;;;17.27;47.94
62025;BME280;47978;49.118;12.146;2023-05-19T08:54:01;97885.41;;;19.48;46.76
62025;BME280;47978;49.118;12.146;2023-05-19T08:58:04;97876.84;;;18.92;45.70
62025;BME280;47978;49.118;12.146;2023-05-19T09:02:07;97878.16;;;18.82;46.68
62025;BME280;47978;49.118;12.146;2023-05-19T09:06:12;97873.84;;;19.38;44.92
62025;BME280;47978;49.118;12.146;2023-05-19T09:10:13;97869.88;;;18.74;48.52
62025;BME280;47978;49.118;12.146;2023-05-19T09:14:15;97867.97;;;17.95;48.62
62025;BME280;47978;49.118;12.146;2023-05-19T09:18:16;97861.63;;;17.53;49.80
62025;BME280;47978;49.118;12.146;2023-05-19T09:22:19;97845.22;;;18.42;49.03
62025;BME280;47978;49.118;12.146;2023-05-19T09:26:21;97854.34;;;18.88;48.15
62025;BME280;47978;49.118;12.146;2023-05-19T09:30:23;97853.53;;;17.72;48.08
62025;BME280;47978;49.118;12.146;2023-05-19T09:34:24;97849.63;;;18.31;48.63
62025;BME280;47978;49.118;12.146;2023-05-19T09:38:28;97860.00;;;16.89;50.84
62025;BME280;47978;49.118;12.146;2023-05-19T09:42:36;97843.41;;;17.47;50.66
62025;BME280;47978;49.118;12.146;2023-05-19T09:46:46;97837.41;;;18.85;49.08
62025;BME280;47978;49.118;12.146;2023-05-19T09:50:47;97838.34;;;18.77;48.43
62025;BME280;47978;49.118;12.146;2023-05-19T09:54:51;97834.59;;;18.60;48.34
62025;BME280;47978;49.118;12.146;2023-05-19T09:58:53;97832.88;;;17.86;49.25
62025;BME280;47978;49.118;12.146;2023-05-19T10:02:55;97818.28;;;18.50;49.05
62025;BME280;47978;49.118;12.146;2023-05-19T10:06:57;97818.72;;;18.64;48.40
62025;BME280;47978;49.118;12.146;2023-05-19T10:11:01;97827.16;;;18.77;48.31
62025;BME280;47978;49.118;12.146;2023-05-19T10:15:04;97818.00;;;18.55;49.70
62025;BME280;47978;49.118;12.146;2023-05-19T10:19:06;97813.06;;;17.91;48.69
62025;BME280;47978;49.118;12.146;2023-05-19T10:23:08;97808.59;;;18.48;49.51
62025;BME280;47978;49.118;12.146;2023-05-19T10:27:12;97816.50;;;18.46;48.32
62025;BME280;47978;49.118;12.146;2023-05-19T10:31:18;97815.88;;;18.03;49.97
62025;BME280;47978;49.118;12.146;2023-05-19T10:35:32;97808.31;;;18.04;50.29
62025;BME280;47978;49.118;12.146;2023-05-19T10:39:40;97807.31;;;17.42;50.80
62025;BME280;47978;49.118;12.146;2023-05-19T10:43:54;97802.25;;;17.68;51.06
62025;BME280;47978;49.118;12.146;2023-05-19T10:48:00;97787.44;;;18.62;48.72
62025;BME280;47978;49.118;12.146;2023-05-19T10:52:02;97791.41;;;18.49;49.07
62025;BME280;47978;49.118;12.146;2023-05-19T10:56:04;97781.34;;;18.97;47.98
62025;BME280;47978;49.118;12.146;2023-05-19T11:00:26;97794.56;;;18.84;46.97
62025;BME280;47978;49.118;12.146;2023-05-19T11:04:38;97791.31;;;17.75;50.30
62025;BME280;47978;49.118;12.146;2023-05-19T11:08:40;97796.38;;;17.82;48.89
62025;BME280;47978;49.118;12.146;2023-05-19T11:12:44;97798.03;;;17.29;50.37
62025;BME280;47978;49.118;12.146;2023-05-19T11:16:49;97792.84;;;17.19;51.63
62025;BME280;47978;49.118;12.146;2023-05-19T11:20:54;97783.97;;;18.16;49.66
62025;BME280;47978;49.118;12.146;2023-05-19T11:24:56;97779.78;;;17.65;50.70
62025;BME280;47978;49.118;12.146;2023-05-19T11:28:58;97789.19;;;18.18;50.09
62025;BME280;47978;49.118;12.146;2023-05-19T11:33:02;97790.00;;;18.68;48.81
62025;BME280;47978;49.118;12.146;2023-05-19T11:37:05;97775.44;;;18.74;48.78
62025;BME280;47978;49.118;12.146;2023-05-19T11:41:06;97775.78;;;17.53;50.65
62025;BME280;47978;49.118;12.146;2023-05-19T11:45:09;97769.75;;;17.30;51.82
62025;BME280;47978;49.118;12.146;2023-05-19T11:49:12;97769.22;;;17.95;51.27
62025;BME280;47978;49.118;12.146;2023-05-19T11:53:16;97759.00;;;18.24;49.10
62025;BME280;47978;49.118;12.146;2023-05-19T11:57:18;97765.50;;;18.15;50.40
62025;BME280;47978;49.118;12.146;2023-05-19T12:01:22;97773.00;;;18.11;50.56
62025;BME280;47978;49.118;12.146;2023-05-19T12:05:25;97763.75;;;17.98;50.13
62025;BME280;47978;49.118;12.146;2023-05-19T12:09:27;97761.75;;;17.87;50.28
62025;BME280;47978;49.118;12.146;2023-05-19T12:13:29;97755.94;;;17.80;50.28
62025;BME280;47978;49.118;12.146;2023-05-19T12:17:31;97753.16;;;18.41;49.31
62025;BME280;47978;49.118;12.146;2023-05-19T12:21:34;97755.47;;;18.51;50.25
62025;BME280;47978;49.118;12.146;2023-05-19T12:25:36;97761.78;;;17.99;50.10
62025;BME280;47978;49.118;12.146;2023-05-19T12:29:39;97766.03;;;17.72;50.42
62025;BME280;47978;49.118;12.146;2023-05-19T12:33:40;97748.13;;;18.47;47.80
62025;BME280;47978;49.118;12.146;2023-05-19T12:37:43;97751.94;;;18.66;49.00
62025;BME280;47978;49.118;12.146;2023-05-19T12:41:45;97751.16;;;18.54;48.79
62025;BME280;47978;49.118;12.146;2023-05-19T12:45:46;97752.69;;;19.32;48.14
62025;BME280;47978;49.118;12.146;2023-05-19T12:49:55;97738.41;;;19.21;49.08
62025;BME280;47978;49.118;12.146;2023-05-19T12:54:01;97732.94;;;18.60;48.24
62025;BME280;47978;49.118;12.146;2023-05-19T12:58:04;97726.63;;;19.16;48.17
62025;BME280;47978;49.118;12.146;2023-05-19T13:02:07;97718.16;;;19.28;47.87
62025;BME280;47978;49.118;12.146;2023-05-19T13:06:09;97713.34;;;19.28;49.19
62025;BME280;47978;49.118;12.146;2023-05-19T13:10:12;97726.00;;;18.05;50.08
62025;BME280;47978;49.118;12.146;2023-05-19T13:14:13;97721.03;;;18.75;50.11
62025;BME280;47978;49.118;12.146;2023-05-19T13:18:16;97736.78;;;18.55;50.97
62025;BME280;47978;49.118;12.146;2023-05-19T13:22:17;97728.78;;;18.29;50.64
62025;BME280;47978;49.118;12.146;2023-05-19T13:26:20;97713.97;;;18.04;50.93
62025;BME280;47978;49.118;12.146;2023-05-19T13:30:22;97729.00;;;18.49;51.05
62025;BME280;47978;49.118;12.146;2023-05-19T13:34:23;97710.06;;;18.58;49.96
62025;BME280;47978;49.118;12.146;2023-05-19T13:38:25;97707.75;;;19.00;50.09
62025;BME280;47978;49.118;12.146;2023-05-19T13:42:28;97719.25;;;18.83;50.20
62025;BME280;47978;49.118;12.146;2023-05-19T13:46:29;97711.13;;;18.53;50.24
62025;BME280;47978;49.118;12.146;2023-05-19T13:50:46;97706.94;;;19.28;49.14
62025;BME280;47978;49.118;12.146;2023-05-19T13:54:48;97704.16;;;18.47;49.70
62025;BME280;47978;49.118;12.146;2023-05-19T13:58:51;97708.78;;;18.55;50.48
62025;BME280;47978;49.118;12.146;2023-05-19T14:02:52;97716.41;;;18.42;50.16
62025;BME280;47978;49.118;12.146;2023-05-19T14:06:54;97717.88;;;18.52;50.06
62025;BME280;47978;49.118;12.146;2023-05-19T14:10:55;97706.53;;;18.85;49.46
62025;BME280;47978;49.118;12.146;2023-05-19T14:14:59;97705.72;;;19.13;48.67
62025;BME280;47978;49.118;12.146;2023-05-19T14:19:01;97696.84;;;18.83;49.93
62025;BME280;47978;49.118;12.146;2023-05-19T14:23:02;97699.00;;;18.49;50.43
62025;BME280;47978;49.118;12.146;2023-05-19T14:27:04;97703.06;;;18.76;51.00
62025;BME280;47978;49.118;12.146;2023-05-19T14:31:11;97701.78;;;19.30;50.15
62025;BME280;47978;49.118;12.146;2023-05-19T14:35:12;97700.13;;;18.60;50.48
62025;BME280;47978;49.118;12.146;2023-05-19T14:39:14;97695.31;;;19.14;50.56
62025;BME280;47978;49.118;12.146;2023-05-19T14:43:16;97691.69;;;18.85;50.84
62025;BME280;47978;49.118;12.146;2023-05-19T14:47:19;97695.09;;;18.78;50.70
62025;BME280;47978;49.118;12.146;2023-05-19T14:51:20;97685.22;;;18.97;51.24
62025;BME280;47978;49.118;12.146;2023-05-19T14:55:22;97676.16;;;19.75;48.85
62025;BME280;47978;49.118;12.146;2023-05-19T14:59:23;97688.91;;;20.05;48.25
62025;BME280;47978;49.118;12.146;2023-05-19T15:03:26;97680.50;;;18.85;50.27
62025;BME280;47978;49.118;12.146;2023-05-19T15:07:28;97694.19;;;18.62;51.15
62025;BME280;47978;49.118;12.146;2023-05-19T15:11:29;97695.22;;;18.82;50.75
62025;BME280;47978;49.118;12.146;2023-05-19T15:15:31;97705.34;;;18.34;51.92
62025;BME280;47978;49.118;12.146;2023-05-19T15:19:34;97706.94;;;19.00;51.00
62025;BME280;47978;49.118;12.146;2023-05-19T15:23:35;97694.34;;;18.41;53.02
62025;BME280;47978;49.118;12.146;2023-05-19T15:27:37;97698.78;;;18.30;53.65
62025;BME280;47978;49.118;12.146;2023-05-19T15:31:39;97698.22;;;18.24;53.30
62025;BME280;47978;49.118;12.146;2023-05-19T15:35:42;97698.56;;;18.47;53.71
62025;BME280;47978;49.118;12.146;2023-05-19T15:39:44;97700.75;;;18.54;51.98
62025;BME280;47978;49.118;12.146;2023-05-19T15:43:46;97688.53;;;18.34;53.61
62025;BME280;47978;49.118;12.146;2023-05-19T15:47:47;97695.66;;;18.31;53.55
62025;BME280;47978;49.118;12.146;2023-05-19T15:51:50;97700.41;;;18.43;53.45
62025;BME280;47978;49.118;12.146;2023-05-19T15:55:52;97697.53;;;18.27;54.11
62025;BME280;47978;49.118;12.146;2023-05-19T15:59:53;97685.97;;;18.04;54.56
62025;BME280;47978;49.118;12.146;2023-05-19T16:03:55;97690.25;;;18.38;54.44
62025;BME280;47978;49.118;12.146;2023-05-19T16:07:58;97695.28;;;18.45;53.07
62025;BME280;47978;49.118;12.146;2023-05-19T16:12:00;97694.28;;;18.65;53.01
62025;BME280;47978;49.118;12.146;2023-05-19T16:16:01;97685.06;;;18.00;53.94
62025;BME280;47978;49.118;12.146;2023-05-19T16:20:04;97684.72;;;18.66;52.94
62025;BME280;47978;49.118;12.146;2023-05-19T16:24:07;97685.88;;;18.25;53.14
62025;BME280;47978;49.118;12.146;2023-05-19T16:28:08;97682.91;;;17.48;55.78
62025;BME280;47978;49.118;12.146;2023-05-19T16:32:10;97685.34;;;17.04;57.16
62025;BME280;47978;49.118;12.146;2023-05-19T16:36:12;97686.59;;;16.94;58.25
62025;BME280;47978;49.118;12.146;2023-05-19T16:40:15;97673.88;;;17.30;57.42
62025;BME280;47978;49.118;12.146;2023-05-19T16:44:17;97674.28;;;17.07;57.85
62025;BME280;47978;49.118;12.146;2023-05-19T16:48:18;97680.84;;;17.12;58.04
62025;BME280;47978;49.118;12.146;2023-05-19T16:52:20;97674.94;;;17.25;57.57
62025;BME280;47978;49.118;12.146;2023-05-19T16:56:23;97667.84;;;16.95;58.35
62025;BME280;47978;49.118;12.146;2023-05-19T17:00:24;97668.22;;;16.51;58.88
62025;BME280;47978;49.118;12.146;2023-05-19T17:04:26;97670.13;;;16.59;58.89
62025;BME280;47978;49.118;12.146;2023-05-19T17:08:31;97664.59;;;16.72;58.98
62025;BME280;47978;49.118;12.146;2023-05-19T17:12:34;97660.16;;;16.71;59.61
62025;BME280;47978;49.118;12.146;2023-05-19T17:16:35;97664.94;;;16.28;60.38
62025;BME280;47978;49.118;12.146;2023-05-19T17:20:37;97660.53;;;16.48;60.23
62025;BME280;47978;49.118;12.146;2023-05-19T17:24:39;97674.47;;;16.27;61.05
62025;BME280;47978;49.118;12.146;2023-05-19T17:28:41;97671.09;;;15.92;62.51
62025;BME280;47978;49.118;12.146;2023-05-19T17:32:43;97676.66;;;15.92;62.49
62025;BME280;47978;49.118;12.146;2023-05-19T17:36:45;97669.06;;;15.63;63.30
62025;BME280;47978;49.118;12.146;2023-05-19T17:40:46;97675.44;;;15.72;63.53
62025;BME280;47978;49.118;12.146;2023-05-19T17:44:49;97677.78;;;15.52;64.83
62025;BME280;47978;49.118;12.146;2023-05-19T17:48:51;97680.44;;;15.49;64.95
62025;BME280;47978;49.118;12.146;2023-05-19T17:52:53;97677.81;;;15.44;65.50
62025;BME280;47978;49.118;12.146;2023-05-19T17:56:56;97677.06;;;15.35;65.79
62025;BME280;47978;49.118;12.146;2023-05-19T18:01:00;97672.63;;;15.25;66.28
62025;BME280;47978;49.118;12.146;2023-05-19T18:05:02;97672.34;;;15.18;66.83
62025;BME280;47978;49.118;12.146;2023-05-19T18:09:05;97671.84;;;15.16;66.78
62025;BME280;47978;49.118;12.146;2023-05-19T18:13:08;97669.41;;;15.14;66.79
62025;BME280;47978;49.118;12.146;2023-05-19T18:17:12;97659.53;;;15.17;66.82
62025;BME280;47978;49.118;12.146;2023-05-19T18:21:13;97660.09;;;15.01;67.35
62025;BME280;47978;49.118;12.146;2023-05-19T18:25:15;97663.53;;;14.98;67.93
62025;BME280;47978;49.118;12.146;2023-05-19T18:29:16;97663.84;;;14.97;68.03
62025;BME280;47978;49.118;12.146;2023-05-19T18:33:19;97665.69;;;14.84;68.76
62025;BME280;47978;49.118;12.146;2023-05-19T18:37:25;97666.50;;;14.93;69.03
62025;BME280;47978;49.118;12.146;2023-05-19T18:41:27;97675.38;;;14.78;69.06
62025;BME280;47978;49.118;12.146;2023-05-19T18:45:28;97668.66;;;14.70;69.61
62025;BME280;47978;49.118;12.146;2023-05-19T18:49:31;97666.03;;;14.65;69.91
62025;BME280;47978;49.118;12.146;2023-05-19T18:53:33;97666.53;;;14.67;70.36
62025;BME280;47978;49.118;12.146;2023-05-19T18:57:34;97670.94;;;14.68;70.52
62025;BME280;47978;49.118;12.146;2023-05-19T19:01:36;97671.44;;;14.53;71.19
62025;BME280;47978;49.118;12.146;2023-05-19T19:05:39;97686.53;;;14.52;71.18
62025;BME280;47978;49.118;12.146;2023-05-19T19:09:41;97675.84;;;14.54;71.42
62025;BME280;47978;49.118;12.146;2023-05-19T19:13:42;97676.63;;;14.46;72.21
62025;BME280;47978;49.118;12.146;2023-05-19T19:17:44;97677.47;;;14.37;72.16
62025;BME280;47978;49.118;12.146;2023-05-19T19:21:47;97695.94;;;14.33;72.88
62025;BME280;47978;49.118;12.146;2023-05-19T19:25:48;97688.09;;;14.35;72.73
62025;BME280;47978;49.118;12.146;2023-05-19T19:29:50;97678.75;;;14.31;72.94
62025;BME280;47978;49.118;12.146;2023-05-19T19:33:52;97690.22;;;14.21;73.50
62025;BME280;47978;49.118;12.146;2023-05-19T19:37:54;97690.06;;;14.17;73.89
62025;BME280;47978;49.118;12.146;2023-05-19T19:41:56;97689.19;;;14.08;74.59
62025;BME280;47978;49.118;12.146;2023-05-19T19:45:58;97686.41;;;14.08;74.39
62025;BME280;47978;49.118;12.146;2023-05-19T19:50:00;97691.50;;;13.98;75.27
62025;BME280;47978;49.118;12.146;2023-05-19T19:54:03;97692.31;;;13.98;75.45
62025;BME280;47978;49.118;12.146;2023-05-19T19:58:04;97694.09;;;14.03;75.54
62025;BME280;47978;49.118;12.146;2023-05-19T20:02:06;97705.38;;;13.98;75.76
62025;BME280;47978;49.118;12.146;2023-05-19T20:06:07;97694.59;;;13.96;76.04
62025;BME280;47978;49.118;12.146;2023-05-19T20:10:10;97693.59;;;13.92;76.30
62025;BME280;47978;49.118;12.146;2023-05-19T20:14:12;97692.44;;;13.93;76.50
62025;BME280;47978;49.118;12.146;2023-05-19T20:18:14;97697.53;;;14.00;76.16
62025;BME280;47978;49.118;12.146;2023-05-19T20:22:15;97686.09;;;14.01;75.75
62025;BME280;47978;49.118;12.146;2023-05-19T20:26:18;97677.44;;;14.11;75.59
62025;BME280;47978;49.118;12.146;2023-05-19T20:30:20;97688.22;;;14.04;75.77
62025;BME280;47978;49.118;12.146;2023-05-19T20:34:21;97683.00;;;14.11;75.52
62025;BME280;47978;49.118;12.146;2023-05-19T20:38:23;97689.53;;;14.07;75.81
62025;BME280;47978;49.118;12.146;2023-05-19T20:42:26;97691.00;;;14.04;76.15
62025;BME280;47978;49.118;12.146;2023-05-19T20:46:27;97693.28;;;14.02;75.99
62025;BME280;47978;49.118;12.146;2023-05-19T20:50:29;97678.25;;;14.03;76.22
62025;BME280;47978;49.118;12.146;2023-05-19T20:54:31;97682.31;;;13.97;76.46
62025;BME280;47978;49.118;12.146;2023-05-19T20:58:34;97684.75;;;13.90;76.63
62025;BME280;47978;49.118;12.146;2023-05-19T21:02:35;97687.03;;;13.88;77.09
62025;BME280;47978;49.118;12.146;2023-05-19T21:06:37;97683.25;;;13.75;77.53
62025;BME280;47978;49.118;12.146;2023-05-19T21:10:39;97683.06;;;13.71;77.73
62025;BME280;47978;49.118;12.146;2023-05-19T21:14:41;97680.63;;;13.70;77.69